Back to top

Casper, Wyoming Weather

Natrona County International Airport, Casper, WY: 12/14/2018 21:53
Visibility10 statute mileswind sock with clear sky
View 7-Day Forecast
Area Summary
Sky/CloudsSky Clear
Weather [last 24 hours]None
Pressure30.03 in.Hg (1017 hPa)
Dew Point10.9 °F (-11.7 °C)
Relative Humidity36.2 %
Temperature35.1 °F (1.7 °C)red thermometer
Wind Chill22 °F (-5.53 °C) @ gust 20.8 °F (-6.22 °C)
Reading TimeMinimum to Maximum Temperature
6-hr ending 12/14@16:5335.1 °F to 43 °F (1.7 °C to 6.1 °C)
6-hr ending 12/14@10:5327 °F to 37.9 °F (-2.8 °C to 3.3 °C)
6-hr ending 12/14@04:5326.1 °F to 28 °F (-3.3 °C to -2.2 °C)
6-hr ending 12/13@22:5327 °F to 30.9 °F (-2.8 °C to -0.6 °C)
24-hr ending 12/13@23:5315.1 °F to 33.1 °F (-9.4 °C to 0.6 °C)
Wind28.8 MPH (25 KT) gusting to 35.7 MPH (31 KT)green arrow pointing 225 degrees
Wind FromSouthwest (230 Degrees)
Last Hour's Peak Wind35.7 MPH (31 KT) on 12/14@21:45
Last Hour's Peak Wind FromSouthwest (220 Degrees)
Rolling 24-hr Peak Wind40.3 MPH (35 KT) on 12/14@09:12
Rolling 24-hr Peak Wind FromSouth/Southwest (210 Degrees)
Twilight Begins06:58Sunshine Yesterday
Sunrise07:30N/A
Sunset16:32
Twilight Ends17:04
METARKCPR 150453Z AUTO 23025G31KT 10SM CLR 02/M12 A3003 RMK AO2 PK WND 22031/0445 SLP182 T00171117